Time;durP1;ratioP1;P1;durP2;ratioP2;P2;SDS_P1;SDS_P2;PMS_P1;PMS_P2;Temp;Humidity;BMP_temperature;BMP_pressure;BME280_temperature;BME280_humidity;BME280_pressure;Samples;Min_cycle;Max_cycle;Signal;HPM_P1;HPM_P2
2021/09/08 00:01:33;;;;;;;;;20.25;19.25;;;;;19.41;47.23;99238.03;4973750;28;102498;-81
2021/09/08 00:04:00;;;;;;;;;19.75;17.75;;;;;19.40;47.18;99232.81;4954269;28;102662;-81
2021/09/08 00:06:27;;;;;;;;;16.25;15.25;;;;;19.38;47.34;99241.28;4955874;28;104519;-81
2021/09/08 00:08:54;;;;;;;;;17.25;17.00;;;;;19.37;47.31;99239.59;4928227;28;102930;-82
2021/09/08 00:11:21;;;;;;;;;20.00;18.50;;;;;19.37;47.31;99244.25;4979955;28;102455;-81
2021/09/08 00:13:48;;;;;;;;;21.00;19.75;;;;;19.35;47.37;99241.78;4964035;28;102582;-81
2021/09/08 00:16:15;;;;;;;;;17.50;17.00;;;;;19.36;47.08;99248.09;4972819;28;104081;-81
2021/09/08 00:18:42;;;;;;;;;16.75;15.25;;;;;19.36;47.10;99240.66;4968541;28;102429;-81
2021/09/08 00:21:09;;;;;;;;;19.25;17.25;;;;;19.35;47.13;99241.78;4977404;28;102451;-81
2021/09/08 00:23:36;;;;;;;;;17.00;15.50;;;;;19.34;46.96;99245.59;4965221;28;102223;-81
2021/09/08 00:26:03;;;;;;;;;19.75;18.75;;;;;19.34;46.76;99245.59;4974370;28;104082;-81
2021/09/08 00:28:30;;;;;;;;;16.00;13.50;;;;;19.33;47.12;99248.56;4962115;28;103923;-81
2021/09/08 00:30:57;;;;;;;;;20.25;18.50;;;;;19.32;46.51;99244.13;4970772;28;102693;-81
2021/09/08 00:33:24;;;;;;;;;16.00;15.75;;;;;19.30;46.73;99247.16;4974464;27;102422;-81
2021/09/08 00:35:51;;;;;;;;;21.00;19.75;;;;;19.29;46.99;99250.94;4975444;27;104047;-81
2021/09/08 00:38:18;;;;;;;;;17.25;15.50;;;;;19.28;46.98;99249.28;4971169;28;104688;-81
2021/09/08 00:40:45;;;;;;;;;12.50;12.50;;;;;19.28;46.91;99246.53;4963665;28;102571;-81
2021/09/08 00:43:12;;;;;;;;;16.25;16.00;;;;;19.29;46.70;99250.13;4964447;27;102897;-81
2021/09/08 00:45:39;;;;;;;;;22.25;18.75;;;;;19.29;47.06;99259.19;4967641;27;104057;-81
2021/09/08 00:48:06;;;;;;;;;18.25;15.75;;;;;19.27;46.72;99255.88;4974365;28;106704;-81
2021/09/08 00:50:33;;;;;;;;;15.50;14.25;;;;;19.29;46.85;99250.13;4969719;28;102719;-81
2021/09/08 00:53:00;;;;;;;;;17.50;15.25;;;;;19.24;46.51;99259.06;4954240;28;102919;-81
2021/09/08 00:55:27;;;;;;;;;18.00;16.50;;;;;19.26;46.86;99254.19;4959765;28;104122;-82
2021/09/08 00:57:54;;;;;;;;;18.50;17.25;;;;;19.23;46.96;99257.41;4965275;28;104041;-82
2021/09/08 01:00:21;;;;;;;;;18.25;17.50;;;;;19.22;46.61;99250.25;4977761;28;102129;-81
2021/09/08 01:02:48;;;;;;;;;18.00;17.75;;;;;19.22;46.83;99263.13;4965178;28;102680;-81
2021/09/08 01:05:15;;;;;;;;;13.25;12.50;;;;;19.20;46.88;99252.41;4951644;28;104313;-81
2021/09/08 01:07:42;;;;;;;;;17.25;17.00;;;;;19.21;46.74;99264.22;4948383;28;104386;-81
2021/09/08 01:10:09;;;;;;;;;17.50;16.00;;;;;19.20;46.65;99257.88;4935579;28;105504;-81
2021/09/08 01:12:36;;;;;;;;;17.75;16.25;;;;;19.18;46.71;99262.78;4964978;28;102660;-80
2021/09/08 01:15:04;;;;;;;;;17.50;15.75;;;;;19.18;46.59;99260.06;4972331;28;104093;-81
2021/09/08 01:17:31;;;;;;;;;19.25;17.50;;;;;19.18;46.70;99258.13;4974629;27;102627;-81
2021/09/08 01:19:58;;;;;;;;;18.50;15.25;;;;;19.18;46.56;99255.38;4966246;28;102150;-81
2021/09/08 01:22:29;;;;;;;;;17.00;16.75;;;;;19.17;46.13;99255.63;4982483;28;102631;-81
2021/09/08 01:24:56;;;;;;;;;16.00;14.00;;;;;19.16;46.63;99253.97;4966671;28;106306;-81
2021/09/08 01:27:26;;;;;;;;;17.25;15.75;;;;;19.14;46.15;99256.94;4972414;28;102129;-81
2021/09/08 01:29:53;;;;;;;;;17.00;15.75;;;;;19.13;46.38;99248.97;4972653;27;102612;-81
2021/09/08 01:32:20;;;;;;;;;18.00;17.00;;;;;19.10;46.17;99258.50;4971935;28;104013;-81
2021/09/08 01:34:51;;;;;;;;;19.25;18.00;;;;;19.11;46.33;99253.84;4966936;28;103997;-81
2021/09/08 01:37:18;;;;;;;;;18.75;17.25;;;;;19.09;46.61;99250.53;4954042;28;102626;-81
2021/09/08 01:39:45;;;;;;;;;17.00;15.50;;;;;19.06;46.29;99260.03;4959486;28;102493;-81
2021/09/08 01:42:13;;;;;;;;;18.00;16.00;;;;;19.07;46.11;99261.72;4968260;28;102476;-81
2021/09/08 01:44:40;;;;;;;;;17.25;15.25;;;;;19.08;46.26;99262.56;4968925;28;105268;-81
2021/09/08 01:47:07;;;;;;;;;15.25;15.00;;;;;19.07;46.08;99249.91;4965238;28;102466;-81
2021/09/08 01:49:34;;;;;;;;;17.00;16.75;;;;;19.04;45.86;99243.03;4974776;27;104976;-81
2021/09/08 01:52:01;;;;;;;;;17.25;15.75;;;;;19.03;46.04;99259.69;4962570;28;104443;-81
2021/09/08 01:54:28;;;;;;;;;16.00;14.25;;;;;19.02;46.09;99238.84;4965753;28;104321;-82
2021/09/08 01:56:54;;;;;;;;;17.25;16.25;;;;;19.00;46.14;99241.81;4983391;28;102557;-82
2021/09/08 01:59:21;;;;;;;;;16.00;16.00;;;;;19.01;45.66;99248.13;4969203;28;111868;-81
2021/09/08 02:01:48;;;;;;;;;18.25;17.00;;;;;18.98;45.76;99248.63;4961899;27;102482;-81
2021/09/08 02:04:15;;;;;;;;;17.00;16.00;;;;;18.97;46.00;99242.28;4973524;28;103928;-82
2021/09/08 02:06:49;;;;;;;;;17.00;17.00;;;;;18.96;45.75;99246.09;4955109;28;102394;-81
2021/09/08 02:09:16;;;;;;;;;14.00;12.00;;;;;18.94;45.93;99241.94;4976849;28;102480;-81
2021/09/08 02:11:44;;;;;;;;;18.75;16.25;;;;;18.93;45.81;99252.06;4982841;28;102866;-81
2021/09/08 02:14:11;;;;;;;;;22.75;17.75;;;;;18.93;45.77;99251.22;4963647;28;104363;-81
2021/09/08 02:16:38;;;;;;;;;17.25;16.00;;;;;18.92;45.70;99250.41;4959731;28;102253;-81
2021/09/08 02:19:05;;;;;;;;;16.50;15.75;;;;;18.92;45.62;99246.81;4975236;28;102708;-81
2021/09/08 02:21:31;;;;;;;;;18.75;18.50;;;;;18.90;45.42;99247.09;4972716;28;102539;-81
2021/09/08 02:23:58;;;;;;;;;18.50;16.50;;;;;18.90;45.67;99246.25;4973558;28;104082;-82
2021/09/08 02:26:25;;;;;;;;;16.75;16.50;;;;;18.90;45.39;99254.47;4977090;28;102464;-81
2021/09/08 02:28:55;;;;;;;;;17.25;15.25;;;;;18.87;45.75;99246.69;4971660;27;106135;-81
2021/09/08 02:31:22;;;;;;;;;16.75;16.00;;;;;18.86;45.68;99247.78;4973837;28;102775;-81
2021/09/08 02:33:49;;;;;;;;;19.50;17.00;;;;;18.84;44.96;99247.19;4973895;28;104284;-81
2021/09/08 02:36:15;;;;;;;;;19.00;16.75;;;;;18.83;45.25;99245.50;4979911;28;102456;-81
2021/09/08 02:38:42;;;;;;;;;18.75;17.00;;;;;18.82;45.79;99249.34;4980048;28;104645;-82
2021/09/08 02:41:10;;;;;;;;;21.25;16.00;;;;;18.80;45.44;99246.00;4968892;28;102506;-82
2021/09/08 02:43:37;;;;;;;;;18.00;17.00;;;;;18.79;45.25;99250.63;4973392;27;104061;-82
2021/09/08 02:46:04;;;;;;;;;20.50;17.50;;;;;18.80;45.53;99251.47;4970034;28;102295;-82
2021/09/08 02:48:31;;;;;;;;;16.75;13.75;;;;;18.79;45.40;99247.91;4959276;28;102550;-82
2021/09/08 02:50:58;;;;;;;;;17.00;15.25;;;;;18.79;45.52;99244.31;4973656;27;102267;-82
2021/09/08 02:53:25;;;;;;;;;16.25;16.00;;;;;18.77;45.41;99243.75;4980101;28;104072;-81
2021/09/08 02:55:52;;;;;;;;;22.00;15.75;;;;;18.75;44.98;99243.97;4966055;28;102407;-81
2021/09/08 02:58:19;;;;;;;;;18.50;18.00;;;;;18.73;45.07;99246.94;4969241;28;102466;-82
2021/09/08 03:00:49;;;;;;;;;18.75;18.50;;;;;18.71;45.01;99251.84;4976906;28;102750;-82
2021/09/08 03:03:16;;;;;;;;;15.75;15.00;;;;;18.70;45.33;99247.41;4977038;27;104257;-82
2021/09/08 03:05:43;;;;;;;;;21.75;17.50;;;;;18.70;45.09;99244.69;4980021;28;102546;-81
2021/09/08 03:08:10;;;;;;;;;19.75;17.50;;;;;18.68;45.16;99249.59;4975418;28;103205;-82
2021/09/08 03:10:37;;;;;;;;;17.25;16.50;;;;;18.65;45.00;99241.81;4957494;28;105336;-82
2021/09/08 03:13:05;;;;;;;;;22.00;18.75;;;;;18.65;45.01;99244.56;4972275;28;105183;-82
2021/09/08 03:15:32;;;;;;;;;19.75;18.00;;;;;18.64;45.47;99240.16;4969921;28;102565;-82
2021/09/08 03:17:59;;;;;;;;;17.75;16.50;;;;;18.64;45.30;99248.38;4965445;28;102180;-82
2021/09/08 03:20:26;;;;;;;;;19.00;18.00;;;;;18.62;44.69;99242.31;4977966;28;102272;-81
2021/09/08 03:22:53;;;;;;;;;17.25;16.75;;;;;18.61;45.01;99253.50;4965356;28;108476;-82
2021/09/08 03:25:20;;;;;;;;;18.00;16.00;;;;;18.61;45.24;99243.38;4970648;28;102752;-81
2021/09/08 03:27:46;;;;;;;;;19.25;15.50;;;;;18.60;45.29;99252.66;4947657;28;102553;-81
2021/09/08 03:30:13;;;;;;;;;17.50;15.75;;;;;18.59;44.99;99250.16;4975861;28;102772;-82
2021/09/08 03:32:40;;;;;;;;;16.00;15.00;;;;;18.57;44.72;99247.66;4974694;28;104081;-82
2021/09/08 03:35:07;;;;;;;;;20.75;17.25;;;;;18.56;44.39;99245.97;4959831;28;102758;-82
2021/09/08 03:37:35;;;;;;;;;20.00;18.50;;;;;18.55;44.37;99254.47;4973678;28;104538;-82
2021/09/08 03:40:02;;;;;;;;;19.75;18.75;;;;;18.54;44.99;99245.41;4982860;27;107743;-82
2021/09/08 03:42:29;;;;;;;;;18.50;17.50;;;;;18.54;44.62;99242.66;4969782;28;103934;-82
2021/09/08 03:44:57;;;;;;;;;19.50;18.25;;;;;18.52;44.92;99250.25;4961124;28;102813;-82
2021/09/08 03:47:24;;;;;;;;;17.75;16.50;;;;;18.51;44.51;99245.81;4969171;28;102958;-82
2021/09/08 03:49:54;;;;;;;;;16.75;15.50;;;;;18.50;45.00;99244.19;4968956;28;103942;-82
2021/09/08 03:52:21;;;;;;;;;19.00;17.75;;;;;18.51;44.79;99242.25;4969640;28;104239;-82
2021/09/08 03:54:48;;;;;;;;;16.50;16.00;;;;;18.48;44.20;99246.31;4980504;28;102337;-82
2021/09/08 03:57:14;;;;;;;;;16.50;15.25;;;;;18.49;44.84;99244.41;4967849;28;103464;-82
2021/09/08 03:59:41;;;;;;;;;20.25;17.00;;;;;18.46;44.33;99248.44;4985068;28;102655;-82
2021/09/08 04:02:08;;;;;;;;;15.75;14.75;;;;;18.45;44.56;99246.78;4976628;28;104313;-82
2021/09/08 04:04:36;;;;;;;;;18.75;17.75;;;;;18.45;44.90;99246.78;4968544;28;102257;-81
2021/09/08 04:07:03;;;;;;;;;23.25;17.75;;;;;18.42;44.52;99247.25;4967500;28;105746;-82
2021/09/08 04:09:30;;;;;;;;;18.25;18.00;;;;;18.41;44.62;99248.34;4975493;28;102611;-82
2021/09/08 04:11:57;;;;;;;;;18.25;16.50;;;;;18.41;44.21;99248.34;4970724;28;104111;-82
2021/09/08 04:14:24;;;;;;;;;20.25;18.50;;;;;18.39;44.43;99255.09;4992451;28;102175;-82
2021/09/08 04:16:51;;;;;;;;;18.50;17.00;;;;;18.39;44.44;99252.34;4970082;27;102613;-82
2021/09/08 04:19:20;;;;;;;;;18.25;17.75;;;;;18.37;43.83;99252.59;4972106;28;102359;-81
2021/09/08 04:21:47;;;;;;;;;20.50;20.25;;;;;18.36;44.26;99250.94;4974494;28;104104;-81
2021/09/08 04:24:14;;;;;;;;;17.00;14.00;;;;;18.36;44.74;99248.19;4974831;28;103421;-82
2021/09/08 04:26:40;;;;;;;;;20.00;17.75;;;;;18.34;44.05;99253.06;4963909;28;103233;-82
2021/09/08 04:29:07;;;;;;;;;18.00;15.00;;;;;18.33;44.15;99251.38;4978751;28;110022;-82
2021/09/08 04:31:34;;;;;;;;;19.75;17.25;;;;;18.32;44.17;99251.66;4966722;28;104295;-82
2021/09/08 04:34:06;;;;;;;;;18.75;17.50;;;;;18.30;44.35;99257.34;4964676;28;107482;-82
2021/09/08 04:36:33;;;;;;;;;21.50;19.25;;;;;18.30;44.36;99257.34;4960659;28;104077;-82
2021/09/08 04:39:00;;;;;;;;;21.50;18.00;;;;;18.27;44.37;99252.34;4949093;28;103487;-82
2021/09/08 04:41:27;;;;;;;;;19.00;18.00;;;;;18.27;44.34;99252.34;4975723;28;104105;-81
2021/09/08 04:43:54;;;;;;;;;21.00;17.75;;;;;18.25;43.95;99249.00;4980576;28;102514;-82
2021/09/08 04:46:21;;;;;;;;;19.75;18.25;;;;;18.25;43.93;99252.56;4972185;28;102557;-82
2021/09/08 04:48:48;;;;;;;;;17.25;17.25;;;;;18.24;43.55;99258.28;4970802;27;104964;-82
2021/09/08 04:51:15;;;;;;;;;18.75;18.50;;;;;18.23;43.82;99257.47;4976021;28;104262;-82
2021/09/08 04:53:42;;;;;;;;;20.50;18.25;;;;;18.21;43.78;99256.84;4969161;28;103306;-82
2021/09/08 04:56:09;;;;;;;;;15.00;13.00;;;;;18.22;43.94;99265.91;4975002;28;102603;-82
2021/09/08 04:58:35;;;;;;;;;18.25;16.25;;;;;18.20;44.00;99259.81;4968541;28;102435;-82
2021/09/08 05:01:02;;;;;;;;;18.00;17.00;;;;;18.17;43.82;99257.56;4974365;28;104229;-82
2021/09/08 05:03:32;;;;;;;;;18.00;17.00;;;;;18.17;44.00;99258.38;4965006;28;103362;-82
2021/09/08 05:05:59;;;;;;;;;19.00;18.00;;;;;18.17;44.39;99263.03;4966044;28;103889;-82
2021/09/08 05:08:26;;;;;;;;;18.00;18.00;;;;;18.16;43.55;99255.88;4959054;27;102656;-81
2021/09/08 05:10:53;;;;;;;;;21.50;19.00;;;;;18.14;43.81;99269.81;4969479;28;103973;-81
2021/09/08 05:13:20;;;;;;;;;18.50;17.75;;;;;18.13;44.19;99267.31;4970137;28;102520;-82
2021/09/08 05:15:47;;;;;;;;;18.75;17.75;;;;;18.14;43.65;99274.44;4982939;28;102734;-81
2021/09/08 05:18:13;;;;;;;;;20.25;19.00;;;;;18.12;43.68;99276.56;4976745;28;102398;-82
2021/09/08 05:20:40;;;;;;;;;19.50;18.00;;;;;18.12;43.68;99269.19;4971990;28;104096;-82
2021/09/08 05:23:07;;;;;;;;;18.50;17.00;;;;;18.12;43.80;99271.94;4980736;28;102330;-82
2021/09/08 05:25:34;;;;;;;;;17.00;17.00;;;;;18.11;44.09;99283.09;4963618;28;111030;-82
2021/09/08 05:28:01;;;;;;;;;19.25;17.00;;;;;18.11;44.07;99277.63;4967367;28;103095;-82
2021/09/08 05:30:30;;;;;;;;;18.25;15.50;;;;;18.11;44.22;99280.38;4974893;28;104082;-82
2021/09/08 05:32:57;;;;;;;;;19.00;16.00;;;;;18.12;44.08;99291.09;4961964;28;102478;-81
2021/09/08 05:35:24;;;;;;;;;21.00;19.50;;;;;18.08;43.27;99280.84;4952866;28;102721;-82
2021/09/08 05:37:51;;;;;;;;;21.75;18.00;;;;;18.07;43.61;99279.16;4965944;28;104477;-82
2021/09/08 05:40:18;;;;;;;;;17.50;17.00;;;;;18.07;44.11;99277.28;4960586;28;104131;-82
2021/09/08 05:42:44;;;;;;;;;19.00;15.25;;;;;18.05;43.25;99279.44;4975582;28;102393;-82
2021/09/08 05:45:11;;;;;;;;;16.25;16.25;;;;;18.04;44.30;99282.38;4966513;28;102422;-82
2021/09/08 05:47:38;;;;;;;;;22.00;19.75;;;;;18.03;44.02;99283.44;4969071;28;102805;-82
2021/09/08 05:50:06;;;;;;;;;22.50;20.00;;;;;18.02;43.75;99281.78;4964764;27;104083;-82
2021/09/08 05:52:33;;;;;;;;;18.75;16.75;;;;;18.03;43.78;99284.28;4983428;27;104358;-82
2021/09/08 05:54:59;;;;;;;;;19.75;18.00;;;;;18.01;43.36;99286.41;4976001;28;103693;-82
2021/09/08 05:57:26;;;;;;;;;17.00;15.75;;;;;18.01;44.04;99280.13;4976980;28;102850;-82
2021/09/08 05:59:53;;;;;;;;;16.00;15.75;;;;;18.00;43.36;99286.66;4977395;28;103815;-82
2021/09/08 06:02:20;;;;;;;;;18.50;16.75;;;;;18.00;43.88;99283.91;4974642;28;102499;-82
2021/09/08 06:04:47;;;;;;;;;16.75;16.25;;;;;18.01;43.68;99282.84;4979359;27;102512;-82
2021/09/08 06:07:14;;;;;;;;;20.25;17.25;;;;;17.98;43.62;99284.13;4982362;28;102831;-82
2021/09/08 06:09:41;;;;;;;;;19.50;19.25;;;;;17.97;43.34;99279.72;4978531;28;103812;-82
2021/09/08 06:12:08;;;;;;;;;20.25;18.00;;;;;17.97;44.10;99279.72;4973000;28;102414;-82
2021/09/08 06:14:35;;;;;;;;;22.25;17.25;;;;;17.95;43.37;99276.41;4981281;28;112091;-82
2021/09/08 06:17:02;;;;;;;;;18.50;17.00;;;;;17.95;44.00;99275.56;4974951;27;103412;-82
2021/09/08 06:19:29;;;;;;;;;21.50;17.25;;;;;17.96;44.59;99277.25;4980307;28;104054;-82
2021/09/08 06:21:56;;;;;;;;;20.75;19.50;;;;;17.97;44.23;99273.41;4960273;28;102490;-82
2021/09/08 06:24:23;;;;;;;;;19.50;17.75;;;;;18.01;44.33;99271.91;4978481;28;102608;-82
2021/09/08 06:26:50;;;;;;;;;19.50;17.25;;;;;17.99;43.77;99271.28;4980068;28;105572;-82
2021/09/08 06:29:17;;;;;;;;;19.75;17.75;;;;;17.98;43.73;99272.34;4973123;27;104140;-82
2021/09/08 06:31:44;;;;;;;;;18.25;17.75;;;;;17.96;43.79;99269.88;4959058;28;102841;-82
2021/09/08 06:34:11;;;;;;;;;15.50;14.25;;;;;17.97;44.30;99273.41;4985817;28;102646;-81
2021/09/08 06:36:38;;;;;;;;;18.50;17.00;;;;;17.96;44.03;99275.34;4974927;28;102415;-82
2021/09/08 06:39:06;;;;;;;;;19.75;16.75;;;;;17.97;44.79;99267.94;4975536;28;109733;-81
2021/09/08 06:41:33;;;;;;;;;17.75;16.50;;;;;17.97;44.10;99268.78;4988183;28;102582;-82
2021/09/08 06:44:00;;;;;;;;;18.75;17.00;;;;;17.98;44.43;99277.81;4977807;28;102774;-82
2021/09/08 06:46:26;;;;;;;;;20.75;16.00;;;;;17.96;45.24;99280.81;4977591;28;102927;-82
2021/09/08 06:48:54;;;;;;;;;17.00;16.50;;;;;17.98;44.39;99275.09;4982573;28;103862;-81
2021/09/08 06:51:21;;;;;;;;;17.50;15.25;;;;;18.01;44.39;99280.13;4978640;27;102850;-82
2021/09/08 06:53:48;;;;;;;;;14.75;14.75;;;;;18.02;44.79;99281.78;4979542;28;102848;-82
2021/09/08 06:56:15;;;;;;;;;17.00;15.25;;;;;18.02;44.52;99276.28;4986152;27;102662;-82
2021/09/08 06:58:42;;;;;;;;;18.25;16.50;;;;;18.01;44.75;99280.94;4980163;28;103862;-81
2021/09/08 07:01:09;;;;;;;;;17.25;15.50;;;;;18.02;45.20;99285.34;4987524;27;103518;-82
2021/09/08 07:03:36;;;;;;;;;17.50;15.00;;;;;18.02;45.35;99290.81;4979919;28;102642;-82
2021/09/08 07:06:03;;;;;;;;;20.00;16.00;;;;;18.03;45.77;99286.19;4968430;28;102697;-82
2021/09/08 07:08:30;;;;;;;;;15.00;14.75;;;;;18.04;44.82;99285.13;4971783;28;104601;-81
2021/09/08 07:10:56;;;;;;;;;18.00;15.00;;;;;18.04;45.61;99283.22;4978046;28;102578;-81
2021/09/08 07:13:23;;;;;;;;;15.75;14.50;;;;;18.05;45.95;99286.78;4974087;27;103143;-81
2021/09/08 07:15:50;;;;;;;;;14.00;13.00;;;;;18.05;46.16;99287.63;4985101;28;108354;-81
2021/09/08 07:18:17;;;;;;;;;14.00;13.25;;;;;18.07;45.46;99284.66;4981850;28;104013;-81
2021/09/08 07:20:44;;;;;;;;;15.75;12.75;;;;;18.08;46.12;99287.16;4966981;28;102707;-81
2021/09/08 07:23:11;;;;;;;;;15.50;14.50;;;;;18.09;45.85;99296.22;4974056;28;102595;-81
2021/09/08 07:25:38;;;;;;;;;13.00;12.25;;;;;18.11;46.34;99296.78;4968295;28;102532;-81
2021/09/08 07:28:05;;;;;;;;;18.00;13.00;;;;;18.13;46.55;99295.50;4978331;27;104110;-81
2021/09/08 07:30:32;;;;;;;;;12.25;12.00;;;;;18.14;46.20;99290.88;4982043;28;102294;-82
2021/09/08 07:32:59;;;;;;;;;16.00;14.25;;;;;18.15;46.09;99292.53;4965084;28;102227;-81
2021/09/08 07:35:26;;;;;;;;;14.00;11.25;;;;;18.16;45.87;99294.19;4982018;28;102498;-81
2021/09/08 07:37:53;;;;;;;;;14.25;13.50;;;;;18.16;46.30;99292.28;4975854;27;104320;-81
2021/09/08 07:40:19;;;;;;;;;16.50;14.50;;;;;18.17;46.72;99293.13;4940999;28;102165;-81
2021/09/08 07:42:46;;;;;;;;;8.50;8.50;;;;;18.19;46.67;99300.03;4981725;28;104987;-82
2021/09/08 07:45:13;;;;;;;;;16.00;15.00;;;;;18.21;46.88;99302.53;4962985;28;102740;-81
2021/09/08 07:47:40;;;;;;;;;13.25;10.50;;;;;18.21;46.21;99297.91;4967253;28;104074;-82
2021/09/08 07:50:07;;;;;;;;;14.25;11.50;;;;;18.24;46.64;99302.06;4975421;27;102163;-82
2021/09/08 07:52:34;;;;;;;;;14.00;12.00;;;;;18.24;47.05;99297.44;4970878;28;102406;-82
2021/09/08 07:55:02;;;;;;;;;11.00;11.00;;;;;18.26;47.08;99299.94;4966347;28;103369;-81
2021/09/08 07:57:30;;;;;;;;;12.00;11.50;;;;;18.29;46.34;99304.94;4978259;28;110234;-82
2021/09/08 07:59:56;;;;;;;;;15.00;11.75;;;;;18.33;47.10;99303.41;4975062;28;102401;-81
2021/09/08 08:02:23;;;;;;;;;10.50;9.50;;;;;18.36;46.69;99304.88;4964944;28;102150;-81
2021/09/08 08:04:50;;;;;;;;;11.25;11.00;;;;;18.35;47.36;99301.28;4980665;28;102570;-81
2021/09/08 08:07:17;;;;;;;;;14.50;11.50;;;;;18.37;47.62;99303.81;4977701;28;104266;-82
2021/09/08 08:09:44;;;;;;;;;12.00;10.25;;;;;18.39;47.01;99299.75;4973684;28;102615;-81
2021/09/08 08:12:11;;;;;;;;;10.33;9.33;;;;;18.40;47.17;99301.41;4975357;28;102280;-81
2021/09/08 08:14:38;;;;;;;;;12.00;11.67;;;;;18.40;47.10;99306.91;4973329;28;102318;-81
2021/09/08 08:17:05;;;;;;;;;12.00;11.50;;;;;18.39;47.60;99302.47;4976029;28;104073;-82
2021/09/08 08:19:32;;;;;;;;;11.50;10.25;;;;;18.44;47.12;99307.25;4992008;28;102123;-81
2021/09/08 08:21:59;;;;;;;;;12.00;10.75;;;;;18.44;47.56;99297.13;4975139;28;103550;-82
2021/09/08 08:24:26;;;;;;;;;12.00;10.67;;;;;18.46;47.17;99299.66;4971495;28;102868;-81
2021/09/08 08:26:53;;;;;;;;;9.00;9.00;;;;;18.48;46.59;99300.25;4977148;28;104038;-82
2021/09/08 08:29:21;;;;;;;;;11.00;10.25;;;;;18.48;47.04;99298.34;4977155;28;107555;-81
2021/09/08 08:31:47;;;;;;;;;14.75;11.50;;;;;18.50;46.87;99300.84;4985492;28;102217;-81
2021/09/08 08:34:15;;;;;;;;;11.00;11.00;;;;;18.50;46.95;99307.16;4981777;28;102656;-82
2021/09/08 08:36:42;;;;;;;;;12.00;11.00;;;;;18.52;46.94;99296.78;4980467;28;104281;-82
2021/09/08 08:39:08;;;;;;;;;11.00;10.00;;;;;18.53;46.71;99293.03;4982348;28;102257;-81
2021/09/08 08:41:35;;;;;;;;;11.00;11.00;;;;;18.54;46.75;99294.69;4970644;28;102710;-82
2021/09/08 08:44:05;;;;;;;;;9.33;8.00;;;;;18.55;46.80;99293.59;4962392;28;102680;-81
2021/09/08 08:46:32;;;;;;;;;9.50;9.50;;;;;18.57;46.64;99296.97;4968662;28;109008;-81
2021/09/08 08:48:59;;;;;;;;;11.50;10.50;;;;;18.57;46.50;99299.69;4973588;28;102497;-81
2021/09/08 08:51:26;;;;;;;;;10.00;9.00;;;;;18.58;46.87;99298.63;4954517;28;104311;-81
2021/09/08 08:53:53;;;;;;;;;10.00;9.67;;;;;18.58;46.68;99298.63;4974946;28;102190;-81
2021/09/08 08:56:20;;;;;;;;;12.00;10.00;;;;;18.60;46.56;99296.47;4968079;27;104100;-81
2021/09/08 08:58:47;;;;;;;;;10.67;9.67;;;;;18.61;46.97;99292.69;4960920;28;102195;-81
2021/09/08 09:01:21;;;;;;;;;7.00;6.00;;;;;18.63;46.45;99296.03;4984395;28;102442;-81
2021/09/08 09:04:08;;;;;;;;;8.00;8.00;;;;;18.64;46.29;99294.94;4962317;28;102525;-81
2021/09/08 09:06:39;;;;;;;;;9.33;8.33;;;;;18.64;47.11;99292.19;4964773;28;108961;-81
2021/09/08 09:09:13;;;;;;;;;11.67;10.00;;;;;18.65;47.00;99293.88;4987229;28;102196;-82
2021/09/08 09:11:41;;;;;;;;;10.67;9.33;;;;;18.66;46.97;99279.09;4973965;28;107056;-82
2021/09/08 09:14:09;;;;;;;;;11.33;9.67;;;;;18.67;46.63;99289.00;4971802;28;102191;-81
2021/09/08 09:16:37;;;;;;;;;9.33;7.33;;;;;18.68;46.70;99293.41;4978328;28;104107;-82
2021/09/08 09:19:04;;;;;;;;;10.00;9.33;;;;;18.68;46.49;99292.59;4975181;28;102598;-81
2021/09/08 09:21:31;;;;;;;;;9.00;8.33;;;;;18.70;46.62;99290.41;4967813;28;102935;-81
2021/09/08 09:23:59;;;;;;;;;11.00;9.00;;;;;18.71;46.95;99283.88;4989636;28;102193;-81
2021/09/08 09:26:33;;;;;;;;;11.33;10.00;;;;;18.73;47.22;99280.91;4971136;28;105594;-81
2021/09/08 09:29:18;;;;;;;;;8.33;8.00;;;;;18.75;47.15;99281.50;4972455;28;102391;-81
2021/09/08 09:31:56;;;;;;;;;10.00;9.00;;;;;18.76;46.99;99284.00;4981023;28;102211;-81
2021/09/08 09:34:26;;;;;;;;;10.67;9.00;;;;;18.76;46.73;99278.53;4963259;28;102970;-81
2021/09/08 09:36:54;;;;;;;;;8.00;8.00;;;;;18.78;47.12;99278.28;4973243;27;103811;-81
2021/09/08 09:39:21;;;;;;;;;11.33;10.33;;;;;18.77;46.65;99274.72;4986472;27;103989;-81
2021/09/08 09:41:48;;;;;;;;;11.67;10.67;;;;;18.79;46.63;99275.31;4984563;28;103450;-81
2021/09/08 09:44:15;;;;;;;;;9.00;9.00;;;;;18.80;46.62;99273.41;4972359;27;102637;-81
2021/09/08 09:46:43;;;;;;;;;11.33;9.00;;;;;18.80;46.64;99273.41;4984509;28;104138;-81
2021/09/08 09:49:13;;;;;;;;;8.33;8.00;;;;;18.81;47.01;99264.13;4980993;28;102717;-81
2021/09/08 09:51:41;;;;;;;;;12.33;9.00;;;;;18.81;46.88;99258.63;4974874;28;102921;-82
2021/09/08 09:54:08;;;;;;;;;5.67;5.00;;;;;18.83;46.64;99261.94;4983000;28;102387;-82
2021/09/08 09:56:35;;;;;;;;;11.00;10.33;;;;;18.84;46.65;99264.47;4981663;28;104110;-81
2021/09/08 09:59:02;;;;;;;;;7.00;6.67;;;;;18.83;47.20;99248.25;4977743;27;102360;-81
2021/09/08 10:01:29;;;;;;;;;8.00;8.00;;;;;18.87;46.82;99252.19;4984630;27;102504;-81
2021/09/08 10:03:56;;;;;;;;;9.00;8.00;;;;;18.86;47.31;99245.88;4984156;27;103257;-81
2021/09/08 10:06:23;;;;;;;;;10.00;9.00;;;;;18.88;47.07;99260.16;4957908;27;104221;-81
2021/09/08 10:08:55;;;;;;;;;9.67;8.00;;;;;18.89;47.03;99250.03;4958535;28;102527;-81
2021/09/08 10:11:32;;;;;;;;;10.00;9.00;;;;;18.89;47.18;99247.31;4963761;28;103922;-81
2021/09/08 10:14:05;;;;;;;;;8.00;7.33;;;;;18.91;47.08;99247.91;4964233;28;102541;-81
2021/09/08 10:16:33;;;;;;;;;9.33;9.00;;;;;18.91;46.89;99247.91;4982043;27;108868;-81
2021/09/08 10:19:06;;;;;;;;;12.00;10.00;;;;;18.92;47.02;99244.06;4969651;28;102582;-81
2021/09/08 10:21:36;;;;;;;;;9.33;9.33;;;;;18.93;46.87;99235.63;4964888;28;102682;-81
2021/09/08 10:24:05;;;;;;;;;9.00;9.00;;;;;18.94;47.12;99239.22;4967565;28;102625;-81
2021/09/08 10:26:33;;;;;;;;;5.67;5.67;;;;;18.97;47.20;99235.97;4976694;27;111970;-81
2021/09/08 10:29:08;;;;;;;;;8.00;7.67;;;;;18.96;47.25;99228.81;4977975;27;102682;-81
2021/09/08 10:31:42;;;;;;;;;8.00;7.33;;;;;18.98;46.80;99227.53;4976070;28;102230;-81
2021/09/08 10:34:11;;;;;;;;;9.00;8.00;;;;;18.99;46.95;99226.47;4959707;28;102733;-81
2021/09/08 10:36:39;;;;;;;;;10.00;8.67;;;;;19.00;47.01;99219.06;4978693;27;104096;-81
2021/09/08 10:39:16;;;;;;;;;7.67;6.00;;;;;19.01;46.82;99232.50;4976523;28;102569;-81
2021/09/08 10:41:50;;;;;;;;;9.00;7.33;;;;;19.03;47.02;99232.28;4978066;28;105216;-81
2021/09/08 10:44:18;;;;;;;;;11.00;9.67;;;;;19.02;47.04;99217.75;4971468;28;102532;-81
2021/09/08 10:46:59;;;;;;;;;10.00;8.00;;;;;19.05;47.31;99221.91;4982272;28;104040;-81
2021/09/08 10:49:41;;;;;;;;;9.00;7.00;;;;;19.06;47.02;99218.94;4973623;28;102722;-81
2021/09/08 10:52:09;;;;;;;;;10.33;8.33;;;;;19.06;46.90;99218.94;4971571;28;102616;-81
2021/09/08 10:55:08;;;;;;;;;8.33;8.33;;;;;19.09;47.10;99217.63;4976787;28;102356;-81
2021/09/08 10:57:41;;;;;;;;;10.00;9.00;;;;;19.09;47.10;99214.88;4915494;28;109121;-81
2021/09/08 11:00:21;;;;;;;;;9.33;9.33;;;;;19.10;47.26;99214.63;4972650;28;102813;-81
2021/09/08 11:02:48;;;;;;;;;8.33;8.00;;;;;19.11;47.14;99205.34;4974148;28;102443;-81
2021/09/08 11:05:16;;;;;;;;;10.00;9.00;;;;;19.13;47.38;99216.06;4981708;28;102292;-81
2021/09/08 11:07:44;;;;;;;;;9.00;8.00;;;;;19.14;46.99;99210.31;4966208;28;104114;-81
2021/09/08 11:10:11;;;;;;;;;8.00;7.00;;;;;19.15;47.23;99208.41;4957958;28;102221;-81
2021/09/08 11:12:51;;;;;;;;;9.00;7.33;;;;;19.16;47.26;99210.09;4983521;28;102616;-81
2021/09/08 11:15:18;;;;;;;;;9.67;8.67;;;;;19.17;47.25;99203.53;4974344;28;103261;-81